createdAt,value
2023-01-04T00:00:05.578Z,39.95
2023-01-04T00:01:20.486Z,41.50
2023-01-04T00:02:14.643Z,43.60
2023-01-04T00:03:08.594Z,42.99
2023-01-04T00:04:02.534Z,42.39
2023-01-04T00:04:56.448Z,40.74
2023-01-04T00:05:50.463Z,41.70
2023-01-04T00:06:37.520Z,44.17
2023-01-04T00:07:11.550Z,45.67
2023-01-04T00:07:58.466Z,45.66
2023-01-04T00:08:32.519Z,44.90
2023-01-04T00:09:19.456Z,43.71
2023-01-04T00:09:53.518Z,43.49
2023-01-04T00:10:40.473Z,43.35
2023-01-04T00:11:22.541Z,43.66
2023-01-04T00:12:02.457Z,44.59
2023-01-04T00:12:43.602Z,50.39
2023-01-04T00:13:23.447Z,50.40
2023-01-04T00:14:17.479Z,47.51
2023-01-04T00:15:11.452Z,46.84
2023-01-04T00:16:07.930Z,45.24
2023-01-04T00:17:02.475Z,40.36
2023-01-04T00:17:56.447Z,37.89
2023-01-04T00:18:50.471Z,37.61
2023-01-04T00:19:44.436Z,37.24
2023-01-04T00:20:38.460Z,35.54
2023-01-04T00:21:41.453Z,34.03
2023-01-04T00:22:21.460Z,33.38
2023-01-04T00:23:01.500Z,36.42
2023-01-04T00:23:42.450Z,45.50
2023-01-04T00:24:22.530Z,48.75
2023-01-04T00:25:03.442Z,48.22
2023-01-04T00:25:45.555Z,39.63
2023-01-04T00:26:35.469Z,36.40
2023-01-04T00:27:15.560Z,41.26
2023-01-04T00:27:58.484Z,49.17
2023-01-04T00:28:38.536Z,45.30
2023-01-04T00:29:20.459Z,43.14
2023-01-04T00:30:00.573Z,42.41
2023-01-04T00:30:40.434Z,40.64
2023-01-04T00:31:35.549Z,39.04
2023-01-04T00:32:29.446Z,39.67
2023-01-04T00:33:16.443Z,39.83
2023-01-04T00:33:50.503Z,39.67
2023-01-04T00:34:37.442Z,40.89
2023-01-04T00:35:18.009Z,39.31
2023-01-04T00:36:20.443Z,36.94
2023-01-04T00:36:54.526Z,35.85
2023-01-04T00:37:43.680Z,35.81
2023-01-04T00:38:28.463Z,33.91
2023-01-04T00:39:27.416Z,32.29
2023-01-04T00:40:22.448Z,32.89
2023-01-04T00:41:49.169Z,33.46
2023-01-04T00:42:31.414Z,30.92
2023-01-04T00:43:25.415Z,29.77
2023-01-04T00:44:09.459Z,28.81
2023-01-04T00:44:49.498Z,27.84
2023-01-04T00:45:29.421Z,27.79
2023-01-04T00:46:11.624Z,27.79
2023-01-04T00:46:52.554Z,27.96
2023-01-04T00:47:33.499Z,28.55
2023-01-04T00:48:13.423Z,27.92
2023-01-04T00:48:58.220Z,27.16
2023-01-04T00:49:41.443Z,26.94
2023-01-04T00:50:21.485Z,27.76
2023-01-04T00:51:02.406Z,28.20
2023-01-04T00:51:45.478Z,28.16
2023-01-04T00:52:26.404Z,29.25
2023-01-04T00:53:06.505Z,29.42
2023-01-04T00:53:46.421Z,28.34
2023-01-04T00:54:27.515Z,28.42
2023-01-04T00:55:07.439Z,28.61
2023-01-04T00:55:47.496Z,28.21
2023-01-04T00:56:28.389Z,27.75
2023-01-04T00:57:08.959Z,27.95
2023-01-04T00:57:49.396Z,27.86
2023-01-04T00:58:29.527Z,27.05
2023-01-04T00:59:11.390Z,25.70
2023-01-04T00:59:51.474Z,25.27
2023-01-04T01:00:31.428Z,25.69
2023-01-04T01:01:13.657Z,24.45
2023-01-04T01:01:54.516Z,23.23
2023-01-04T01:02:34.583Z,22.91
2023-01-04T01:03:14.496Z,23.02
2023-01-04T01:03:54.877Z,22.63
2023-01-04T01:04:34.405Z,21.90
2023-01-04T01:05:15.526Z,21.89
2023-01-04T01:05:55.390Z,21.39
2023-01-04T01:06:37.463Z,21.00
2023-01-04T01:07:17.409Z,21.19
2023-01-04T01:07:57.619Z,21.00
2023-01-04T01:08:39.395Z,20.60
2023-01-04T01:09:22.666Z,20.23
2023-01-04T01:10:02.394Z,20.69
2023-01-04T01:10:42.444Z,20.49
2023-01-04T01:11:23.437Z,20.51
2023-01-04T01:12:03.439Z,19.96
2023-01-04T01:12:43.398Z,19.75
2023-01-04T01:13:23.687Z,19.99
2023-01-04T01:14:05.420Z,19.99
2023-01-04T01:14:45.478Z,20.14
2023-01-04T01:15:25.381Z,19.66
2023-01-04T01:16:13.514Z,19.31
2023-01-04T01:16:57.115Z,19.80
2023-01-04T01:17:39.456Z,19.36
2023-01-04T01:18:20.366Z,19.17
2023-01-04T01:19:00.453Z,19.49
2023-01-04T01:19:41.395Z,19.52
2023-01-04T01:20:21.449Z,18.80
2023-01-04T01:21:01.405Z,17.99
2023-01-04T01:21:41.467Z,18.30
2023-01-04T01:22:21.389Z,17.83
2023-01-04T01:23:01.428Z,17.46
2023-01-04T01:23:42.387Z,17.66
2023-01-04T01:24:25.487Z,18.02
2023-01-04T01:25:06.382Z,17.29
2023-01-04T01:25:47.542Z,18.06
2023-01-04T01:26:30.394Z,17.89
2023-01-04T01:27:10.752Z,18.61
2023-01-04T01:27:50.397Z,18.65
2023-01-04T01:28:30.473Z,18.13
2023-01-04T01:29:10.366Z,18.16
2023-01-04T01:29:50.446Z,18.58
2023-01-04T01:30:30.372Z,18.59
2023-01-04T01:31:20.477Z,18.80
2023-01-04T01:32:00.565Z,19.00
2023-01-04T01:32:40.444Z,18.96
2023-01-04T01:33:20.399Z,18.71
2023-01-04T01:34:02.501Z,18.21
2023-01-04T01:34:43.408Z,18.05
2023-01-04T01:35:23.458Z,18.30
2023-01-04T01:36:08.375Z,18.67
2023-01-04T01:36:48.488Z,18.94
2023-01-04T01:37:28.362Z,18.96
2023-01-04T01:38:09.467Z,19.16
2023-01-04T01:38:50.392Z,19.34
2023-01-04T01:39:30.478Z,19.31
2023-01-04T01:40:11.373Z,19.36
2023-01-04T01:40:52.446Z,19.65
2023-01-04T01:41:38.382Z,19.10
2023-01-04T01:42:27.438Z,18.90
2023-01-04T01:43:07.403Z,18.86
2023-01-04T01:44:17.375Z,18.55
2023-01-04T01:45:18.366Z,18.95
2023-01-04T01:46:12.402Z,19.14
2023-01-04T01:47:08.360Z,18.86
2023-01-04T01:48:04.360Z,18.88
2023-01-04T01:48:58.351Z,18.79
2023-01-04T01:49:44.368Z,18.63
2023-01-04T01:50:38.395Z,18.24
2023-01-04T01:51:18.324Z,18.29
2023-01-04T01:51:59.424Z,18.85
2023-01-04T01:52:43.367Z,19.40
2023-01-04T01:53:39.357Z,19.16
2023-01-04T01:54:44.558Z,18.96
2023-01-04T01:55:38.340Z,19.44
2023-01-04T01:56:33.337Z,19.67
2023-01-04T01:57:35.338Z,19.10
2023-01-04T01:58:38.356Z,19.39
2023-01-04T01:59:34.412Z,18.84
2023-01-04T02:00:20.367Z,19.04
2023-01-04T02:01:00.422Z,19.14
2023-01-04T02:01:41.458Z,19.17
2023-01-04T02:02:21.517Z,18.69
2023-01-04T02:03:12.439Z,19.02
2023-01-04T02:03:53.463Z,19.15
2023-01-04T02:04:34.352Z,19.23
2023-01-04T02:05:15.408Z,19.24
2023-01-04T02:06:00.370Z,19.31
2023-01-04T02:06:46.441Z,18.74
2023-01-04T02:07:30.332Z,18.89
2023-01-04T02:08:11.754Z,18.83
2023-01-04T02:08:52.333Z,18.59
2023-01-04T02:09:32.385Z,18.95
2023-01-04T02:10:14.339Z,19.24
2023-01-04T02:10:54.416Z,19.17
2023-01-04T02:11:35.396Z,19.25
2023-01-04T02:12:19.388Z,18.51
2023-01-04T02:13:00.332Z,18.80
2023-01-04T02:14:00.849Z,18.86
2023-01-04T02:14:40.313Z,18.73
2023-01-04T02:15:20.394Z,18.83
2023-01-04T02:16:19.374Z,18.40
2023-01-04T02:17:23.337Z,18.45
2023-01-04T02:18:19.439Z,18.59
2023-01-04T02:19:49.321Z,18.31
2023-01-04T02:20:58.406Z,18.16
2023-01-04T02:22:11.308Z,18.08
2023-01-04T02:23:23.322Z,17.83
2023-01-04T02:24:47.505Z,17.40
2023-01-04T02:26:08.333Z,17.44
2023-01-04T02:27:39.379Z,16.89
2023-01-04T02:28:47.326Z,16.85
2023-01-04T02:30:20.362Z,16.44
2023-01-04T02:31:44.393Z,16.49
2023-01-04T02:33:03.416Z,17.06
2023-01-04T02:34:06.336Z,16.86
2023-01-04T02:35:15.441Z,16.27
2023-01-04T02:36:21.421Z,16.61
2023-01-04T02:37:06.375Z,16.94
2023-01-04T02:38:23.308Z,16.86
2023-01-04T02:39:13.343Z,16.42
2023-01-04T02:40:37.313Z,16.15
2023-01-04T02:41:56.284Z,15.54
2023-01-04T02:43:46.314Z,15.36
2023-01-04T02:45:06.311Z,15.52
2023-01-04T02:45:51.369Z,15.80
2023-01-04T02:47:00.393Z,15.39
2023-01-04T02:47:56.051Z,15.59
2023-01-04T02:49:03.270Z,15.63
2023-01-04T02:50:00.720Z,15.70
2023-01-04T02:50:58.330Z,15.49
2023-01-04T02:51:42.380Z,15.25
2023-01-04T02:52:23.291Z,15.70
2023-01-04T02:53:27.355Z,15.34
2023-01-04T02:54:12.285Z,15.24
2023-01-04T02:54:53.397Z,15.63
2023-01-04T02:55:53.266Z,15.45
2023-01-04T02:57:15.298Z,15.41
2023-01-04T02:58:09.341Z,15.75
2023-01-04T02:59:09.265Z,15.81
2023-01-04T03:00:07.335Z,15.40
2023-01-04T03:01:52.427Z,15.39
2023-01-04T03:03:30.499Z,16.01
2023-01-04T03:05:16.306Z,15.52
2023-01-04T03:06:22.273Z,15.49
2023-01-04T03:07:54.265Z,16.33
2023-01-04T03:08:59.282Z,16.88
2023-01-04T03:09:56.291Z,16.77
2023-01-04T03:11:02.269Z,16.24
2023-01-04T03:12:34.259Z,16.46
2023-01-04T03:13:37.271Z,16.94
2023-01-04T03:14:33.533Z,16.63
2023-01-04T03:15:33.328Z,16.17
2023-01-04T03:16:25.347Z,16.35
2023-01-04T03:16:59.328Z,16.21
2023-01-04T03:17:54.278Z,16.35
2023-01-04T03:18:36.365Z,16.15
2023-01-04T03:19:45.280Z,16.20
2023-01-04T03:20:21.342Z,16.33
2023-01-04T03:21:11.244Z,16.30
2023-01-04T03:21:49.372Z,16.42
2023-01-04T03:22:57.278Z,15.99
2023-01-04T03:24:01.254Z,16.14
2023-01-04T03:25:01.272Z,15.95
2023-01-04T03:26:12.244Z,16.05
2023-01-04T03:27:26.249Z,16.51
2023-01-04T03:28:18.384Z,16.26
2023-01-04T03:29:24.295Z,16.39
2023-01-04T03:30:36.271Z,17.14
2023-01-04T03:32:09.899Z,16.88
2023-01-04T03:33:17.235Z,16.74
2023-01-04T03:34:16.055Z,16.77
2023-01-04T03:35:15.230Z,16.92
2023-01-04T03:36:11.271Z,16.84
2023-01-04T03:37:04.293Z,17.00
2023-01-04T03:38:15.989Z,17.16
2023-01-04T03:39:28.408Z,16.81
2023-01-04T03:40:38.778Z,16.41
2023-01-04T03:42:01.259Z,16.67
2023-01-04T03:43:10.075Z,17.17
2023-01-04T03:44:18.245Z,17.40
2023-01-04T03:45:55.790Z,17.35
2023-01-04T03:47:14.271Z,17.33
2023-01-04T03:48:32.531Z,17.85
2023-01-04T03:49:21.243Z,17.35
2023-01-04T03:50:27.340Z,17.42
2023-01-04T03:51:38.228Z,17.69
2023-01-04T03:52:27.340Z,17.99
2023-01-04T03:53:01.352Z,18.16
2023-01-04T03:53:56.253Z,18.02
2023-01-04T03:54:39.377Z,18.30
2023-01-04T03:55:27.238Z,17.91
2023-01-04T03:56:01.264Z,18.14
2023-01-04T03:56:51.233Z,18.24
2023-01-04T03:57:26.386Z,18.17
2023-01-04T03:58:07.245Z,18.65
2023-01-04T03:58:41.271Z,19.50
2023-01-04T03:59:14.979Z,19.14
2023-01-04T04:00:00.207Z,18.44
2023-01-04T04:00:41.381Z,18.34
2023-01-04T04:01:21.298Z,18.09
2023-01-04T04:02:02.562Z,18.42
2023-01-04T04:02:46.206Z,18.44
2023-01-04T04:03:26.249Z,18.90
2023-01-04T04:04:18.881Z,19.50
2023-01-04T04:05:11.566Z,19.19
2023-01-04T04:06:11.206Z,18.69
2023-01-04T04:07:03.803Z,18.56
2023-01-04T04:07:56.224Z,18.15
2023-01-04T04:08:37.244Z,17.77
2023-01-04T04:09:11.302Z,18.58
2023-01-04T04:09:44.899Z,18.94
2023-01-04T04:10:25.202Z,18.75
2023-01-04T04:11:19.244Z,18.70
2023-01-04T04:11:53.616Z,19.30
2023-01-04T04:12:34.208Z,19.34
2023-01-04T04:13:08.322Z,18.60
2023-01-04T04:13:48.220Z,19.27
2023-01-04T04:14:28.282Z,19.91
2023-01-04T04:15:08.209Z,19.84
2023-01-04T04:15:49.268Z,19.92
2023-01-04T04:16:29.262Z,19.75
2023-01-04T04:17:10.257Z,19.71
2023-01-04T04:17:50.195Z,19.77
2023-01-04T04:18:30.256Z,20.13
2023-01-04T04:19:10.240Z,19.55
2023-01-04T04:19:50.256Z,20.00
2023-01-04T04:20:30.179Z,19.85
2023-01-04T04:21:11.270Z,19.76
2023-01-04T04:21:51.224Z,19.67
2023-01-04T04:22:31.283Z,20.09
2023-01-04T04:23:11.214Z,20.24
2023-01-04T04:23:51.340Z,20.01
2023-01-04T04:24:34.215Z,20.44
2023-01-04T04:25:15.288Z,20.40
2023-01-04T04:26:02.190Z,20.52
2023-01-04T04:26:36.262Z,20.58
2023-01-04T04:27:23.166Z,20.71
2023-01-04T04:27:57.301Z,20.48
2023-01-04T04:28:46.207Z,20.54
2023-01-04T04:29:20.347Z,20.88
2023-01-04T04:30:00.225Z,20.90
2023-01-04T04:30:40.704Z,21.00
2023-01-04T04:31:20.229Z,20.71
2023-01-04T04:32:00.370Z,20.81
2023-01-04T04:32:40.171Z,20.13
2023-01-04T04:33:20.229Z,20.05
2023-01-04T04:34:01.180Z,20.31
2023-01-04T04:34:41.318Z,20.05
2023-01-04T04:35:22.207Z,20.48
2023-01-04T04:36:02.275Z,20.95
2023-01-04T04:36:42.168Z,20.86
2023-01-04T04:37:22.237Z,21.50
2023-01-04T04:38:02.173Z,21.42
2023-01-04T04:38:43.292Z,20.90
2023-01-04T04:39:24.180Z,21.13
2023-01-04T04:40:05.299Z,21.05
2023-01-04T04:41:04.196Z,21.52
2023-01-04T04:41:45.238Z,21.46
2023-01-04T04:42:25.165Z,21.54
2023-01-04T04:43:05.229Z,21.55
2023-01-04T04:43:45.178Z,21.95
2023-01-04T04:44:27.300Z,22.00
2023-01-04T04:45:08.173Z,21.88
2023-01-04T04:45:48.285Z,21.83
2023-01-04T04:46:29.202Z,21.86
2023-01-04T04:47:09.310Z,22.30
2023-01-04T04:47:49.187Z,22.31
2023-01-04T04:48:29.260Z,22.39
2023-01-04T04:49:10.187Z,22.66
2023-01-04T04:49:50.250Z,22.90
2023-01-04T04:50:30.167Z,22.63
2023-01-04T04:51:10.242Z,21.73
2023-01-04T04:51:51.178Z,21.89
2023-01-04T04:52:31.243Z,22.33
2023-01-04T04:53:11.133Z,22.15
2023-01-04T04:53:51.236Z,21.55
2023-01-04T04:54:32.179Z,20.67
2023-01-04T04:55:13.257Z,21.02
2023-01-04T04:55:53.158Z,21.42
2023-01-04T04:56:33.326Z,21.20
2023-01-04T04:57:13.183Z,21.06
2023-01-04T04:57:53.219Z,20.81
2023-01-04T04:58:33.144Z,20.92
2023-01-04T04:59:13.240Z,21.04
2023-01-04T04:59:53.164Z,21.11
2023-01-04T05:00:33.307Z,20.74
2023-01-04T05:01:14.353Z,20.86
2023-01-04T05:01:54.441Z,20.86
2023-01-04T05:02:34.367Z,20.71
2023-01-04T05:03:14.319Z,20.41
2023-01-04T05:03:55.152Z,20.91
2023-01-04T05:04:35.198Z,20.56
2023-01-04T05:05:16.137Z,20.71
2023-01-04T05:05:56.205Z,21.70
2023-01-04T05:06:36.132Z,21.94
2023-01-04T05:07:16.220Z,22.06
2023-01-04T05:07:56.172Z,21.60
2023-01-04T05:08:37.233Z,22.35
2023-01-04T05:09:19.154Z,23.30
2023-01-04T05:09:59.213Z,24.05
2023-01-04T05:10:40.146Z,23.96
2023-01-04T05:11:41.169Z,24.77
2023-01-04T05:12:40.118Z,24.40
2023-01-04T05:13:20.177Z,23.50
2023-01-04T05:13:54.206Z,23.20
2023-01-04T05:14:41.137Z,23.09
2023-01-04T05:15:15.225Z,23.08
2023-01-04T05:16:02.161Z,23.12
2023-01-04T05:16:36.293Z,22.67
2023-01-04T05:17:24.126Z,22.30
2023-01-04T05:17:58.191Z,22.21
2023-01-04T05:18:45.139Z,22.90
2023-01-04T05:19:19.181Z,22.48
2023-01-04T05:20:06.139Z,21.88
2023-01-04T05:20:40.243Z,22.25
2023-01-04T05:21:27.143Z,25.09
2023-01-04T05:22:01.223Z,26.01
2023-01-04T05:22:48.151Z,26.69
2023-01-04T05:23:25.262Z,27.06
2023-01-04T05:24:05.203Z,27.34
2023-01-04T05:24:45.197Z,26.31
2023-01-04T05:25:26.126Z,26.10
2023-01-04T05:26:08.180Z,26.35
2023-01-04T05:26:48.150Z,26.74
2023-01-04T05:27:28.187Z,25.65
2023-01-04T05:28:09.120Z,25.39
2023-01-04T05:28:53.575Z,26.44
2023-01-04T05:29:53.144Z,26.36
2023-01-04T05:30:53.526Z,25.65
2023-01-04T05:31:35.141Z,25.92
2023-01-04T05:32:15.257Z,25.63
2023-01-04T05:32:56.148Z,25.05
2023-01-04T05:33:39.217Z,24.83
2023-01-04T05:34:22.320Z,25.04
2023-01-04T05:35:10.203Z,25.09
2023-01-04T05:36:06.129Z,25.30
2023-01-04T05:37:00.125Z,25.14
2023-01-04T05:37:54.097Z,25.25
2023-01-04T05:38:48.093Z,24.80
2023-01-04T05:39:42.125Z,24.25
2023-01-04T05:40:30.141Z,24.71
2023-01-04T05:41:04.179Z,25.30
2023-01-04T05:42:17.097Z,24.96
2023-01-04T05:42:51.167Z,24.29
2023-01-04T05:43:38.102Z,24.27
2023-01-04T05:44:12.174Z,24.71
2023-01-04T05:45:04.099Z,25.08
2023-01-04T05:45:45.180Z,25.81
2023-01-04T05:46:39.119Z,26.66
2023-01-04T05:47:33.107Z,27.21
2023-01-04T05:48:27.098Z,27.81
2023-01-04T05:49:21.112Z,28.19
2023-01-04T05:50:15.140Z,28.00
2023-01-04T05:51:02.137Z,26.94
2023-01-04T05:51:36.165Z,25.59
2023-01-04T05:52:23.083Z,24.44
2023-01-04T05:52:58.205Z,23.95
2023-01-04T05:53:45.116Z,23.91
2023-01-04T05:54:21.445Z,22.94
2023-01-04T05:55:10.129Z,22.38
2023-01-04T05:55:44.187Z,21.71
2023-01-04T05:56:24.143Z,21.60
2023-01-04T05:57:04.169Z,21.19
2023-01-04T05:57:45.087Z,21.25
2023-01-04T05:58:25.201Z,20.59
2023-01-04T05:59:06.099Z,20.21
2023-01-04T05:59:46.228Z,20.00
2023-01-04T06:00:27.109Z,20.08
2023-01-04T06:01:07.796Z,19.14
2023-01-04T06:01:49.259Z,18.89
2023-01-04T06:02:36.380Z,19.39
2023-01-04T06:03:16.170Z,19.65
2023-01-04T06:03:57.906Z,19.76
2023-01-04T06:04:38.061Z,19.92
2023-01-04T06:05:19.171Z,19.63
2023-01-04T06:06:00.109Z,20.23
2023-01-04T06:06:40.172Z,20.17
2023-01-04T06:07:21.130Z,19.96
2023-01-04T06:08:01.159Z,22.91
2023-01-04T06:08:42.083Z,25.25
2023-01-04T06:09:22.183Z,22.77
2023-01-04T06:10:02.161Z,21.23
2023-01-04T06:10:42.118Z,21.44
2023-01-04T06:11:27.395Z,20.63
2023-01-04T06:12:08.206Z,19.24
2023-01-04T06:12:49.106Z,19.66
2023-01-04T06:13:29.193Z,20.45
2023-01-04T06:14:09.073Z,19.80
2023-01-04T06:15:03.063Z,19.98
2023-01-04T06:15:59.316Z,19.91
2023-01-04T06:16:53.157Z,19.00
2023-01-04T06:17:48.089Z,18.76
2023-01-04T06:18:29.089Z,19.11
2023-01-04T06:19:09.166Z,18.74
2023-01-04T06:19:49.075Z,18.73
2023-01-04T06:20:29.350Z,18.15
2023-01-04T06:21:09.069Z,18.11
2023-01-04T06:21:49.189Z,18.60
2023-01-04T06:22:30.076Z,18.13
2023-01-04T06:23:10.085Z,17.51
2023-01-04T06:23:44.109Z,18.25
2023-01-04T06:24:31.081Z,18.73
2023-01-04T06:25:05.150Z,18.59
2023-01-04T06:25:52.065Z,18.33
2023-01-04T06:26:26.179Z,17.91
2023-01-04T06:27:13.085Z,18.35
2023-01-04T06:27:47.227Z,18.36
2023-01-04T06:28:40.352Z,18.21
2023-01-04T06:29:15.130Z,18.50
2023-01-04T06:30:02.086Z,19.51
2023-01-04T06:30:36.199Z,19.50
2023-01-04T06:31:23.141Z,19.52
2023-01-04T06:31:57.136Z,19.33
2023-01-04T06:32:44.071Z,19.21
2023-01-04T06:33:18.123Z,19.23
2023-01-04T06:33:58.058Z,19.14
2023-01-04T06:34:38.123Z,19.29
2023-01-04T06:35:18.058Z,19.02
2023-01-04T06:36:03.115Z,18.91
2023-01-04T06:36:43.051Z,18.89
2023-01-04T06:37:23.090Z,18.60
2023-01-04T06:38:03.051Z,18.41
2023-01-04T06:38:43.118Z,18.74
2023-01-04T06:39:23.078Z,18.26
2023-01-04T06:40:03.633Z,18.23
2023-01-04T06:40:44.033Z,18.77
2023-01-04T06:41:24.144Z,18.94
2023-01-04T06:42:06.974Z,18.51
2023-01-04T06:42:47.160Z,18.96
2023-01-04T06:43:27.039Z,18.61
2023-01-04T06:44:07.087Z,18.46
2023-01-04T06:44:47.071Z,18.29
2023-01-04T06:45:27.115Z,18.74
2023-01-04T06:46:08.083Z,18.46
2023-01-04T06:46:48.098Z,18.45
2023-01-04T06:47:28.040Z,18.30
2023-01-04T06:48:09.436Z,17.99
2023-01-04T06:48:50.027Z,17.79
2023-01-04T06:49:30.091Z,17.80
2023-01-04T06:50:11.041Z,17.76
2023-01-04T06:50:51.118Z,18.61
2023-01-04T06:51:32.040Z,18.21
2023-01-04T06:52:12.146Z,17.98
2023-01-04T06:52:52.044Z,17.54
2023-01-04T06:53:32.089Z,18.00
2023-01-04T06:54:12.033Z,18.05
2023-01-04T06:54:52.118Z,18.23
2023-01-04T06:55:32.030Z,17.80
2023-01-04T06:56:14.089Z,17.94
2023-01-04T06:56:54.022Z,18.42
2023-01-04T06:57:34.166Z,17.96
2023-01-04T06:58:14.037Z,17.79
2023-01-04T06:58:54.097Z,17.83
2023-01-04T06:59:34.041Z,17.70
2023-01-04T07:00:15.090Z,17.58
2023-01-04T07:00:59.084Z,17.54
2023-01-04T07:01:39.160Z,18.11
2023-01-04T07:02:22.099Z,18.42
2023-01-04T07:03:14.822Z,17.98
2023-01-04T07:03:56.037Z,18.02
2023-01-04T07:04:36.122Z,18.25
2023-01-04T07:05:17.046Z,18.45
2023-01-04T07:05:57.190Z,18.44
2023-01-04T07:06:37.029Z,17.55
2023-01-04T07:07:17.095Z,17.51
2023-01-04T07:08:00.050Z,17.58
2023-01-04T07:08:43.074Z,17.74
2023-01-04T07:09:23.002Z,17.60
2023-01-04T07:10:09.203Z,17.56
2023-01-04T07:10:51.017Z,17.88
2023-01-04T07:11:31.101Z,17.24
2023-01-04T07:12:12.039Z,17.74
2023-01-04T07:12:53.079Z,18.60
2023-01-04T07:13:33.025Z,18.70
2023-01-04T07:14:13.291Z,17.67
2023-01-04T07:14:52.994Z,18.06
2023-01-04T07:15:37.959Z,18.27
2023-01-04T07:16:20.035Z,17.98
2023-01-04T07:17:00.082Z,17.99
2023-01-04T07:17:40.034Z,18.35
2023-01-04T07:18:20.085Z,18.05
2023-01-04T07:19:00.012Z,18.13
2023-01-04T07:19:40.061Z,18.74
2023-01-04T07:20:20.999Z,18.71
2023-01-04T07:21:01.070Z,19.24
2023-01-04T07:21:40.997Z,19.54
2023-01-04T07:22:21.051Z,18.88
2023-01-04T07:23:01.006Z,18.65
2023-01-04T07:23:41.069Z,18.13
2023-01-04T07:24:27.894Z,18.55
2023-01-04T07:25:08.066Z,19.00
2023-01-04T07:25:47.992Z,19.31
2023-01-04T07:26:28.068Z,18.52
2023-01-04T07:27:08.984Z,17.77
2023-01-04T07:27:49.088Z,18.15
2023-01-04T07:29:05.051Z,18.17
2023-01-04T07:29:45.070Z,17.92
2023-01-04T07:30:26.003Z,17.98
2023-01-04T07:31:14.120Z,17.31
2023-01-04T07:31:56.999Z,17.70
2023-01-04T07:32:37.049Z,18.24
2023-01-04T07:33:18.003Z,17.92
2023-01-04T07:33:58.082Z,17.99
2023-01-04T07:34:39.006Z,19.35
2023-01-04T07:35:19.050Z,19.83
2023-01-04T07:35:58.976Z,19.76
2023-01-04T07:36:39.889Z,19.83
2023-01-04T07:37:21.991Z,19.51
2023-01-04T07:38:02.083Z,19.85
2023-01-04T07:38:43.002Z,19.88
2023-01-04T07:39:25.061Z,19.86
2023-01-04T07:40:05.020Z,19.56
2023-01-04T07:40:56.012Z,19.16
2023-01-04T07:41:36.970Z,18.84
2023-01-04T07:42:19.931Z,18.88
2023-01-04T07:43:04.995Z,19.11
2023-01-04T07:43:45.054Z,18.58
2023-01-04T07:44:25.016Z,18.46
2023-01-04T07:45:11.999Z,18.85
2023-01-04T07:46:05.999Z,18.94
2023-01-04T07:46:59.966Z,19.00
2023-01-04T07:47:54.069Z,18.41
2023-01-04T07:48:47.951Z,18.26
2023-01-04T07:49:41.981Z,18.00
2023-01-04T07:50:29.143Z,17.45
2023-01-04T07:51:09.040Z,17.55
2023-01-04T07:51:48.973Z,17.71
2023-01-04T07:52:30.046Z,18.15
2023-01-04T07:53:09.975Z,17.91
2023-01-04T07:53:50.022Z,17.89
2023-01-04T07:54:32.947Z,18.45
2023-01-04T07:55:14.020Z,18.46
2023-01-04T07:55:53.970Z,18.35
2023-01-04T07:56:34.047Z,18.60
2023-01-04T07:57:14.971Z,18.80
2023-01-04T07:57:55.126Z,19.58
2023-01-04T07:58:40.029Z,19.81
2023-01-04T07:59:23.125Z,19.74
2023-01-04T08:00:02.988Z,19.94
2023-01-04T08:00:43.017Z,19.20
2023-01-04T08:01:25.121Z,19.25
2023-01-04T08:02:06.205Z,19.15
2023-01-04T08:02:46.142Z,19.15
2023-01-04T08:03:26.028Z,19.29
2023-01-04T08:04:06.035Z,19.15
2023-01-04T08:04:46.081Z,18.85
2023-01-04T08:05:25.981Z,18.94
2023-01-04T08:06:11.029Z,18.49
2023-01-04T08:06:52.970Z,17.73
2023-01-04T08:07:34.013Z,17.76
2023-01-04T08:08:13.947Z,17.76
2023-01-04T08:08:54.988Z,17.75
2023-01-04T08:09:34.970Z,17.75
2023-01-04T08:10:15.019Z,17.67
2023-01-04T08:10:54.962Z,18.00
2023-01-04T08:11:36.147Z,17.58
2023-01-04T08:12:15.972Z,17.13
2023-01-04T08:12:56.027Z,17.20
2023-01-04T08:13:35.980Z,17.76
2023-01-04T08:14:17.010Z,17.59
2023-01-04T08:14:56.931Z,17.67
2023-01-04T08:15:38.073Z,17.48
2023-01-04T08:16:45.963Z,17.64
2023-01-04T08:17:32.965Z,17.99
2023-01-04T08:18:09.291Z,17.91
2023-01-04T08:18:55.949Z,18.09
2023-01-04T08:19:29.738Z,18.59
2023-01-04T08:20:17.945Z,18.31
2023-01-04T08:21:01.585Z,17.53
2023-01-04T08:21:50.069Z,16.98
2023-01-04T08:22:23.631Z,16.81
2023-01-04T08:23:03.966Z,16.81
2023-01-04T08:23:39.388Z,16.64
2023-01-04T08:24:16.714Z,16.60
2023-01-04T08:24:57.936Z,17.79
2023-01-04T08:25:31.982Z,17.39
2023-01-04T08:26:08.579Z,17.21
2023-01-04T08:26:49.933Z,17.71
2023-01-04T08:27:23.986Z,18.20
2023-01-04T08:27:57.631Z,18.36
2023-01-04T08:28:38.961Z,17.99
2023-01-04T08:29:13.048Z,17.69
2023-01-04T08:29:47.820Z,17.98
2023-01-04T08:30:28.078Z,18.08
2023-01-04T08:31:02.030Z,18.06
2023-01-04T08:31:35.693Z,17.91
2023-01-04T08:32:15.914Z,18.24
2023-01-04T08:32:50.516Z,17.75
2023-01-04T08:33:25.233Z,17.84
2023-01-04T08:34:08.972Z,17.95
2023-01-04T08:34:42.988Z,17.58
2023-01-04T08:35:16.725Z,17.39
2023-01-04T08:35:56.932Z,16.69
2023-01-04T08:36:34.121Z,16.86
2023-01-04T08:37:07.956Z,16.33
2023-01-04T08:37:47.926Z,15.99
2023-01-04T08:38:58.174Z,16.11
2023-01-04T08:39:23.949Z,16.65
2023-01-04T08:40:04.967Z,16.76
2023-01-04T08:41:00.136Z,16.35
2023-01-04T08:42:03.620Z,15.88
2023-01-04T08:42:47.926Z,15.32
2023-01-04T08:43:28.023Z,14.81
2023-01-04T08:44:07.930Z,14.98
2023-01-04T08:44:47.954Z,15.13
2023-01-04T08:45:21.975Z,15.49
2023-01-04T08:45:55.631Z,15.30
2023-01-04T08:46:35.993Z,15.19
2023-01-04T08:47:10.028Z,15.06
2023-01-04T08:47:43.616Z,15.10
2023-01-04T08:48:24.911Z,15.09
2023-01-04T08:48:59.014Z,15.76
2023-01-04T08:49:32.714Z,16.25
2023-01-04T08:50:13.925Z,15.56
2023-01-04T08:50:47.975Z,15.01
2023-01-04T08:51:34.921Z,15.07
2023-01-04T08:52:09.940Z,14.41
2023-01-04T08:52:56.907Z,13.89
2023-01-04T08:53:30.959Z,14.71
2023-01-04T08:54:18.883Z,14.52
2023-01-04T08:54:54.063Z,14.31
2023-01-04T08:55:34.944Z,14.59
2023-01-04T08:56:15.987Z,14.77
2023-01-04T08:56:55.920Z,15.14
2023-01-04T08:57:36.035Z,15.21
2023-01-04T08:58:15.916Z,15.76
2023-01-04T08:58:56.036Z,15.34
2023-01-04T08:59:36.886Z,15.41
2023-01-04T09:00:21.592Z,15.05
2023-01-04T09:01:08.971Z,15.65
2023-01-04T09:01:50.115Z,15.32
2023-01-04T09:02:52.096Z,15.20
2023-01-04T09:03:31.966Z,15.89
2023-01-04T09:04:12.927Z,15.36
2023-01-04T09:04:53.998Z,13.73
2023-01-04T09:05:34.889Z,13.40
2023-01-04T09:06:25.895Z,13.56
2023-01-04T09:07:19.930Z,13.55
2023-01-04T09:08:14.903Z,13.07
2023-01-04T09:09:10.893Z,13.07
2023-01-04T09:10:04.885Z,12.85
2023-01-04T09:10:58.894Z,13.05
2023-01-04T09:11:45.907Z,12.99
2023-01-04T09:12:19.943Z,12.96
2023-01-04T09:13:06.868Z,13.30
2023-01-04T09:13:41.927Z,13.55
2023-01-04T09:14:28.892Z,12.79
2023-01-04T09:15:02.966Z,13.02
2023-01-04T09:15:49.931Z,13.32
2023-01-04T09:16:26.005Z,13.00
2023-01-04T09:17:05.889Z,13.45
2023-01-04T09:18:05.230Z,13.09
2023-01-04T09:18:45.865Z,13.02
2023-01-04T09:19:25.982Z,12.76
2023-01-04T09:20:05.869Z,12.60
2023-01-04T09:20:45.954Z,12.23
2023-01-04T09:21:27.964Z,12.95
2023-01-04T09:22:16.008Z,13.69
2023-01-04T09:23:12.885Z,14.14
2023-01-04T09:24:06.866Z,14.19
2023-01-04T09:25:00.871Z,13.54
2023-01-04T09:25:54.871Z,12.50
2023-01-04T09:26:48.852Z,12.96
2023-01-04T09:27:38.895Z,12.81
2023-01-04T09:28:12.954Z,12.89
2023-01-04T09:29:02.887Z,13.20
2023-01-04T09:29:36.965Z,13.23
2023-01-04T09:30:23.916Z,13.43
2023-01-04T09:30:57.978Z,12.86
2023-01-04T09:31:44.879Z,12.20
2023-01-04T09:32:18.932Z,11.70
2023-01-04T09:32:58.879Z,11.82
2023-01-04T09:34:12.308Z,12.29
2023-01-04T09:34:38.886Z,12.36
2023-01-04T09:35:19.931Z,12.38
2023-01-04T09:35:59.861Z,11.71
2023-01-04T09:36:39.938Z,11.24
2023-01-04T09:37:19.874Z,11.40
2023-01-04T09:38:06.908Z,11.84
2023-01-04T09:39:00.850Z,11.52
2023-01-04T09:39:54.842Z,11.35
2023-01-04T09:41:07.863Z,10.89
2023-01-04T09:42:10.860Z,10.32
2023-01-04T09:43:20.942Z,10.39
2023-01-04T09:44:07.838Z,11.18
2023-01-04T09:45:22.957Z,11.13
2023-01-04T09:46:04.848Z,10.66
2023-01-04T09:46:59.024Z,10.43
2023-01-04T09:48:25.195Z,10.54
2023-01-04T09:49:35.951Z,10.05
2023-01-04T09:50:26.850Z,10.02